createdAt,value
2019-06-10T00:02:10.916Z,50.79
2019-06-10T00:05:03.758Z,50.87
2019-06-10T00:07:51.676Z,51.03
2019-06-10T00:10:42.521Z,50.94
2019-06-10T00:13:32.800Z,50.95
2019-06-10T00:16:23.427Z,51.06
2019-06-10T00:19:12.988Z,51.06
2019-06-10T00:22:03.553Z,51.06
2019-06-10T00:24:52.743Z,51.13
2019-06-10T00:27:42.188Z,50.99
2019-06-10T00:30:31.335Z,51.05
2019-06-10T00:33:21.723Z,51.19
2019-06-10T00:36:13.472Z,51.12
2019-06-10T00:39:03.439Z,51.15
2019-06-10T00:41:52.406Z,51.16
2019-06-10T00:44:41.893Z,51.13
2019-06-10T00:47:31.247Z,51.09
2019-06-10T00:50:21.705Z,51.08
2019-06-10T00:53:13.961Z,51.06
2019-06-10T00:56:05.197Z,51.30
2019-06-10T00:58:53.089Z,51.24
2019-06-10T01:01:42.300Z,51.19
2019-06-10T01:04:35.287Z,51.24
2019-06-10T01:07:25.169Z,51.37
2019-06-10T01:10:16.696Z,51.35
2019-06-10T01:13:07.030Z,51.41
2019-06-10T01:15:58.104Z,51.34
2019-06-10T01:18:50.336Z,51.31
2019-06-10T01:21:37.914Z,51.50
2019-06-10T01:24:27.653Z,51.39
2019-06-10T01:27:17.901Z,51.57
2019-06-10T01:30:16.666Z,51.64
2019-06-10T01:32:58.318Z,51.66
2019-06-10T01:35:47.308Z,51.69
2019-06-10T01:38:36.160Z,51.87
2019-06-10T01:41:25.582Z,51.72
2019-06-10T01:44:16.048Z,51.83
2019-06-10T01:47:06.684Z,51.93
2019-06-10T01:49:56.459Z,51.85
2019-06-10T01:52:45.828Z,51.73
2019-06-10T01:55:34.688Z,51.86
2019-06-10T01:58:23.762Z,51.74
2019-06-10T02:01:23.152Z,51.73
2019-06-10T02:04:14.161Z,51.70
2019-06-10T02:07:01.460Z,51.65
2019-06-10T02:09:51.752Z,51.74
2019-06-10T02:12:41.588Z,51.60
2019-06-10T02:15:31.492Z,51.62
2019-06-10T02:18:22.399Z,51.73
2019-06-10T02:21:13.031Z,51.81
2019-06-10T02:24:01.091Z,51.80
2019-06-10T02:26:51.661Z,51.72
2019-06-10T02:29:41.321Z,51.66
2019-06-10T02:32:36.187Z,51.69
2019-06-10T02:35:30.415Z,51.70
2019-06-10T02:38:16.826Z,51.72
2019-06-10T02:41:04.100Z,51.82
2019-06-10T02:43:53.582Z,51.86
2019-06-10T02:46:44.102Z,51.83
2019-06-10T02:49:48.131Z,51.87
2019-06-10T02:52:32.196Z,52.02
2019-06-10T02:55:16.359Z,52.15
2019-06-10T02:58:05.592Z,52.11
2019-06-10T03:00:54.822Z,52.24
2019-06-10T03:03:49.396Z,52.33
2019-06-10T03:06:39.934Z,52.41
2019-06-10T03:09:30.077Z,52.41
2019-06-10T03:12:17.595Z,52.51
2019-06-10T03:15:06.810Z,52.50
2019-06-10T03:17:55.970Z,52.72
2019-06-10T03:20:44.691Z,52.73
2019-06-10T03:23:33.915Z,52.82
2019-06-10T03:26:25.295Z,52.74
2019-06-10T03:29:13.378Z,52.77
2019-06-10T03:32:05.264Z,52.98
2019-06-10T03:34:54.771Z,52.99
2019-06-10T03:37:46.110Z,53.15
2019-06-10T03:40:35.256Z,53.30
2019-06-10T03:43:26.299Z,53.59
2019-06-10T03:46:15.478Z,53.63
2019-06-10T03:49:04.725Z,53.58
2019-06-10T03:51:54.028Z,53.75
2019-06-10T03:54:43.864Z,54.03
2019-06-10T03:57:33.271Z,54.17
2019-06-10T04:00:24.511Z,54.08
2019-06-10T04:03:12.859Z,54.01
2019-06-10T04:06:02.493Z,54.32
2019-06-10T04:08:52.410Z,54.24
2019-06-10T04:11:43.897Z,54.20
2019-06-10T04:14:33.349Z,54.59
2019-06-10T04:17:23.552Z,54.85
2019-06-10T04:20:15.442Z,55.00
2019-06-10T04:23:04.014Z,54.76
2019-06-10T04:25:53.357Z,54.68
2019-06-10T04:28:43.208Z,54.90
2019-06-10T04:31:33.156Z,55.00
2019-06-10T04:34:25.509Z,55.39
2019-06-10T04:37:13.427Z,55.51
2019-06-10T04:40:02.975Z,55.42
2019-06-10T04:42:52.630Z,55.33
2019-06-10T04:45:42.945Z,55.24
2019-06-10T04:48:32.994Z,55.52
2019-06-10T04:51:23.919Z,55.49
2019-06-10T04:54:13.348Z,55.84
2019-06-10T04:57:03.296Z,55.78
2019-06-10T04:59:52.985Z,55.44
2019-06-10T05:02:43.114Z,55.47
2019-06-10T05:05:32.921Z,55.25
2019-06-10T05:08:23.937Z,55.27
2019-06-10T05:11:13.002Z,55.01
2019-06-10T05:14:02.877Z,54.91
2019-06-10T05:16:54.325Z,55.25
2019-06-10T05:19:42.970Z,54.87
2019-06-10T05:22:32.823Z,54.87
2019-06-10T05:25:22.761Z,54.78
2019-06-10T05:28:13.298Z,54.77
2019-06-10T05:31:03.005Z,54.91
2019-06-10T05:33:53.067Z,54.75
2019-06-10T05:36:45.170Z,55.02
2019-06-10T05:39:35.317Z,54.98
2019-06-10T05:42:26.537Z,55.24
2019-06-10T05:45:15.887Z,54.98
2019-06-10T05:48:04.374Z,54.96
2019-06-10T05:51:02.234Z,54.96
2019-06-10T05:53:46.406Z,54.87
2019-06-10T05:56:35.982Z,55.08
2019-06-10T05:59:25.782Z,54.93
2019-06-10T06:02:15.630Z,54.99
2019-06-10T06:05:05.643Z,54.94
2019-06-10T06:08:04.878Z,55.06
2019-06-10T06:10:45.871Z,54.83
2019-06-10T06:13:36.077Z,54.76
2019-06-10T06:16:25.775Z,54.16
2019-06-10T06:19:15.064Z,53.79
2019-06-10T06:22:04.199Z,54.42
2019-06-10T06:24:53.678Z,54.24
2019-06-10T06:27:43.142Z,53.95
2019-06-10T06:30:34.504Z,53.71
2019-06-10T06:33:23.481Z,54.13
2019-06-10T06:36:12.788Z,53.75
2019-06-10T06:39:02.425Z,53.75
2019-06-10T06:41:52.822Z,53.73
2019-06-10T06:44:43.376Z,53.45
2019-06-10T06:47:35.646Z,53.69
2019-06-10T06:50:25.629Z,52.99
2019-06-10T06:53:25.690Z,52.54
2019-06-10T06:56:05.092Z,52.22
2019-06-10T06:58:55.720Z,52.35
2019-06-10T07:01:45.117Z,51.80
2019-06-10T07:04:35.929Z,51.88
2019-06-10T07:07:26.638Z,51.88
2019-06-10T07:10:16.340Z,51.60
2019-06-10T07:13:06.685Z,51.17
2019-06-10T07:15:55.675Z,51.54
2019-06-10T07:18:50.195Z,50.65
2019-06-10T07:21:55.700Z,50.43
2019-06-10T07:24:26.889Z,50.58
2019-06-10T07:27:16.245Z,50.13
2019-06-10T07:30:11.649Z,50.49
2019-06-10T07:32:56.832Z,50.94
2019-06-10T07:35:46.045Z,49.30
2019-06-10T07:38:37.966Z,49.75
2019-06-10T07:41:26.208Z,49.38
2019-06-10T07:44:15.073Z,49.54
2019-06-10T07:47:04.149Z,49.38
2019-06-10T07:49:53.822Z,49.27
2019-06-10T07:52:46.596Z,49.36
2019-06-10T07:55:36.248Z,48.81
2019-06-10T07:58:26.387Z,48.88
2019-06-10T08:01:15.966Z,48.14
2019-06-10T08:04:05.288Z,48.81
2019-06-10T08:06:54.580Z,48.76
2019-06-10T08:09:45.743Z,48.21
2019-06-10T08:12:35.095Z,47.61
2019-06-10T08:15:24.757Z,47.57
2019-06-10T08:18:14.042Z,47.16
2019-06-10T08:21:03.373Z,46.55
2019-06-10T08:23:54.449Z,46.42
2019-06-10T08:26:45.574Z,47.29
2019-06-10T08:29:36.607Z,47.07
2019-06-10T08:32:26.657Z,46.05
2019-06-10T08:35:16.729Z,46.29
2019-06-10T08:38:06.173Z,46.00
2019-06-10T08:40:55.495Z,46.06
2019-06-10T08:43:45.607Z,46.05
2019-06-10T08:46:34.452Z,45.69
2019-06-10T08:49:24.573Z,45.38
2019-06-10T08:52:13.867Z,43.84
2019-06-10T08:55:03.568Z,44.03
2019-06-10T08:57:54.006Z,43.81
2019-06-10T09:00:46.256Z,43.60
2019-06-10T09:03:34.246Z,42.83
2019-06-10T09:06:23.300Z,43.03
2019-06-10T09:09:13.092Z,43.36
2019-06-10T09:12:03.623Z,42.11
2019-06-10T09:14:53.332Z,41.68
2019-06-10T09:17:46.401Z,42.53
2019-06-10T09:20:33.370Z,42.58
2019-06-10T09:23:25.526Z,41.78
2019-06-10T09:26:13.390Z,41.69
2019-06-10T09:29:03.032Z,41.81
2019-06-10T09:31:55.497Z,41.87
2019-06-10T09:34:47.159Z,41.18
2019-06-10T09:37:33.515Z,41.17
2019-06-10T09:40:24.493Z,40.33
2019-06-10T09:43:13.044Z,40.09
2019-06-10T09:46:03.525Z,40.07
2019-06-10T09:48:55.815Z,40.15
2019-06-10T09:51:47.205Z,40.81
2019-06-10T09:54:35.490Z,39.96
2019-06-10T09:57:25.119Z,40.05
2019-06-10T10:00:14.888Z,40.20
2019-06-10T10:03:04.726Z,39.76
2019-06-10T10:06:06.797Z,40.03
2019-06-10T10:08:49.372Z,40.27
2019-06-10T10:11:36.281Z,39.37
2019-06-10T10:14:25.737Z,38.76
2019-06-10T10:17:15.177Z,38.91
2019-06-10T10:20:05.089Z,38.77
2019-06-10T10:22:55.530Z,38.48
2019-06-10T10:25:46.252Z,38.88
2019-06-10T10:28:35.200Z,38.86
2019-06-10T10:31:24.562Z,39.31
2019-06-10T10:34:13.699Z,38.51
2019-06-10T10:37:03.101Z,38.55
2019-06-10T10:39:55.426Z,38.47
2019-06-10T10:42:49.817Z,38.01
2019-06-10T10:45:33.524Z,37.79
2019-06-10T10:48:22.760Z,38.18
2019-06-10T10:51:13.314Z,38.18
2019-06-10T10:54:32.245Z,37.85
2019-06-10T10:56:59.001Z,37.38
2019-06-10T10:59:48.027Z,37.23
2019-06-10T11:02:39.728Z,37.27
2019-06-10T11:05:35.310Z,37.47
2019-06-10T11:08:24.495Z,36.71
2019-06-10T11:11:14.112Z,37.04
2019-06-10T11:14:03.628Z,36.99
2019-06-10T11:16:56.872Z,37.17
2019-06-10T11:19:45.175Z,36.75
2019-06-10T11:22:34.587Z,36.71
2019-06-10T11:25:23.760Z,36.51
2019-06-10T11:28:13.246Z,36.23
2019-06-10T11:31:03.791Z,35.58
2019-06-10T11:33:56.152Z,35.72
2019-06-10T11:36:42.851Z,35.87
2019-06-10T11:39:33.824Z,35.57
2019-06-10T11:42:23.436Z,35.49
2019-06-10T11:45:13.165Z,35.53
2019-06-10T11:48:02.528Z,35.30
2019-06-10T11:50:56.518Z,34.55
2019-06-10T11:53:44.043Z,34.78
2019-06-10T11:56:33.771Z,35.07
2019-06-10T11:59:22.574Z,34.61
2019-06-10T12:02:13.281Z,35.31
2019-06-10T12:05:04.057Z,35.36
2019-06-10T12:07:56.322Z,35.42
2019-06-10T12:10:43.458Z,35.38
2019-06-10T12:13:34.491Z,34.82
2019-06-10T12:19:14.594Z,34.78
2019-06-10T12:22:07.146Z,34.68
2019-06-10T12:25:21.146Z,34.71
2019-06-10T12:27:45.303Z,35.05
2019-06-10T12:30:34.596Z,34.67
2019-06-10T12:33:25.348Z,33.95
2019-06-10T12:36:14.037Z,34.55
2019-06-10T12:39:10.218Z,34.60
2019-06-10T12:41:57.581Z,34.88
2019-06-10T12:44:44.971Z,35.03
2019-06-10T12:47:34.292Z,35.36
2019-06-10T12:50:23.954Z,35.56
2019-06-10T12:53:13.260Z,35.93
2019-06-10T12:56:08.026Z,36.58
2019-06-10T12:58:54.604Z,36.66
2019-06-10T13:01:46.746Z,36.27
2019-06-10T13:04:35.980Z,36.26
2019-06-10T13:07:25.561Z,36.78
2019-06-10T13:10:35.276Z,37.07
2019-06-10T13:13:24.762Z,37.03
2019-06-10T13:16:14.211Z,37.13
2019-06-10T13:19:06.099Z,37.34
2019-06-10T13:21:55.177Z,37.61
2019-06-10T13:24:43.970Z,37.50
2019-06-10T13:27:33.043Z,37.48
2019-06-10T13:30:22.684Z,37.48
2019-06-10T13:33:14.468Z,37.22
2019-06-10T13:36:06.410Z,37.16
2019-06-10T13:38:53.421Z,37.11
2019-06-10T13:41:43.837Z,37.45
2019-06-10T13:44:33.862Z,37.02
2019-06-10T13:47:26.044Z,37.09
2019-06-10T13:50:14.627Z,37.42
2019-06-10T13:53:06.346Z,37.33
2019-06-10T13:56:14.429Z,37.52
2019-06-10T13:58:46.285Z,38.12
2019-06-10T14:01:35.909Z,38.51
2019-06-10T14:04:25.854Z,38.44
2019-06-10T14:07:17.250Z,38.42
2019-06-10T14:10:10.870Z,38.34
2019-06-10T14:12:56.789Z,38.69
2019-06-10T14:15:46.063Z,38.74
2019-06-10T14:18:34.902Z,38.76
2019-06-10T14:21:23.809Z,39.00
2019-06-10T14:24:15.968Z,39.14
2019-06-10T14:27:07.169Z,39.15
2019-06-10T14:29:55.532Z,39.35
2019-06-10T14:32:44.846Z,39.72
2019-06-10T14:35:34.070Z,39.78
2019-06-10T14:38:23.714Z,39.90
2019-06-10T14:41:14.322Z,40.06
2019-06-10T14:44:04.524Z,40.18
2019-06-10T14:46:53.248Z,40.53
2019-06-10T14:49:42.777Z,40.46
2019-06-10T14:52:32.535Z,40.67
2019-06-10T14:55:23.219Z,40.83
2019-06-10T14:58:13.612Z,40.81
2019-06-10T15:01:04.726Z,40.95
2019-06-10T15:03:52.647Z,41.05
2019-06-10T15:06:43.163Z,41.21
2019-06-10T15:09:33.480Z,41.48
2019-06-10T15:12:24.869Z,41.69
2019-06-10T15:15:14.359Z,41.67
2019-06-10T15:18:04.245Z,41.20
2019-06-10T15:20:53.703Z,41.16
2019-06-10T15:23:43.821Z,41.29
2019-06-10T15:26:33.157Z,41.40
2019-06-10T15:29:23.496Z,41.58
2019-06-10T15:32:24.477Z,41.70
2019-06-10T15:35:03.384Z,41.55
2019-06-10T15:37:53.219Z,41.48
2019-06-10T15:40:43.399Z,41.37
2019-06-10T15:43:33.209Z,41.30
2019-06-10T15:46:22.356Z,41.26
2019-06-10T15:49:14.565Z,41.21
2019-06-10T15:52:03.286Z,41.14
2019-06-10T15:54:52.891Z,41.22
2019-06-10T15:57:45.627Z,41.28
2019-06-10T16:00:35.025Z,41.39
2019-06-10T16:03:25.648Z,41.38
2019-06-10T16:06:16.007Z,41.38
2019-06-10T16:09:07.549Z,41.68
2019-06-10T16:11:56.990Z,41.88
2019-06-10T16:14:45.577Z,42.05
2019-06-10T16:17:35.415Z,42.42
2019-06-10T16:20:25.177Z,42.65
2019-06-10T16:23:16.093Z,42.72
2019-06-10T16:26:05.664Z,42.92
2019-06-10T16:28:54.770Z,44.27
2019-06-10T16:31:44.242Z,45.13
2019-06-10T16:34:33.040Z,45.48
2019-06-10T16:37:24.070Z,45.12
2019-06-10T16:40:12.598Z,44.71
2019-06-10T16:43:03.751Z,45.03
2019-06-10T16:45:53.198Z,45.76
2019-06-10T16:48:43.584Z,46.00
2019-06-10T16:51:32.707Z,46.13
2019-06-10T16:54:24.242Z,46.21
2019-06-10T16:57:12.658Z,46.73
2019-06-10T17:00:07.004Z,47.38
2019-06-10T17:02:53.146Z,47.85
2019-06-10T17:05:42.679Z,47.81
2019-06-10T17:08:33.497Z,48.13
2019-06-10T17:11:24.100Z,48.33
2019-06-10T17:14:12.682Z,48.33
2019-06-10T17:17:03.545Z,48.82
2019-06-10T17:19:53.043Z,48.90
2019-06-10T17:22:43.425Z,48.76
2019-06-10T17:25:33.774Z,48.95
2019-06-10T17:28:28.505Z,49.03
2019-06-10T17:31:17.780Z,49.22
2019-06-10T17:34:06.944Z,49.44
2019-06-10T17:36:55.579Z,49.46
2019-06-10T17:39:44.074Z,49.52
2019-06-10T17:42:38.156Z,49.69
2019-06-10T17:45:26.194Z,49.80
2019-06-10T17:48:15.127Z,49.74
2019-06-10T17:51:04.001Z,49.78
2019-06-10T17:53:53.083Z,49.87
2019-06-10T17:56:42.746Z,49.92
2019-06-10T17:59:34.080Z,50.13
2019-06-10T18:02:24.635Z,50.07
2019-06-10T18:05:13.758Z,50.27
2019-06-10T18:08:03.173Z,50.42
2019-06-10T18:10:53.616Z,50.46
2019-06-10T18:13:43.059Z,50.60
2019-06-10T18:16:35.911Z,50.80
2019-06-10T18:19:26.250Z,50.89
2019-06-10T18:22:15.722Z,51.13
2019-06-10T18:25:05.296Z,51.41
2019-06-10T18:27:54.722Z,51.42
2019-06-10T18:30:43.615Z,51.57
2019-06-10T18:33:35.997Z,51.58
2019-06-10T18:36:24.461Z,51.58
2019-06-10T18:39:14.581Z,51.84
2019-06-10T18:42:04.153Z,51.95
2019-06-10T18:44:53.753Z,52.16
2019-06-10T18:47:43.472Z,52.17
2019-06-10T18:50:33.397Z,52.23
2019-06-10T18:53:23.752Z,52.25
2019-06-10T18:56:13.259Z,52.32
2019-06-10T18:59:15.638Z,52.39
2019-06-10T19:01:53.636Z,52.46
2019-06-10T19:04:43.576Z,52.67
2019-06-10T19:07:34.761Z,52.77
2019-06-10T19:10:24.032Z,52.75
2019-06-10T19:13:13.563Z,52.80
2019-06-10T19:16:03.126Z,52.87
2019-06-10T19:18:53.008Z,52.98
2019-06-10T19:21:43.919Z,53.03
2019-06-10T19:24:36.305Z,53.06
2019-06-10T19:27:28.224Z,53.07
2019-06-10T19:30:23.123Z,53.18
2019-06-10T19:33:12.738Z,53.37
2019-06-10T19:36:04.865Z,53.29
2019-06-10T19:38:55.619Z,53.37
2019-06-10T19:41:47.405Z,53.53
2019-06-10T19:44:37.046Z,53.53
2019-06-10T19:47:26.433Z,53.57
2019-06-10T19:50:16.038Z,53.52
2019-06-10T19:53:04.561Z,53.63
2019-06-10T19:55:53.658Z,53.58
2019-06-10T19:58:43.505Z,53.81
2019-06-10T20:01:35.186Z,53.86
2019-06-10T20:04:23.673Z,53.83
2019-06-10T20:07:12.925Z,53.99
2019-06-10T20:10:02.934Z,53.95
2019-06-10T20:12:53.642Z,54.14
2019-06-10T20:15:44.979Z,54.18
2019-06-10T20:18:33.370Z,54.37
2019-06-10T20:21:22.828Z,54.33
2019-06-10T20:24:13.637Z,54.70
2019-06-10T20:27:03.996Z,54.66
2019-06-10T20:30:04.523Z,54.75
2019-06-10T20:32:51.859Z,54.82
2019-06-10T20:35:40.387Z,54.82
2019-06-10T20:38:32.540Z,55.13
2019-06-10T20:41:21.199Z,55.28
2019-06-10T20:44:12.981Z,55.66
2019-06-10T20:47:01.585Z,55.56
2019-06-10T20:49:56.016Z,55.50
2019-06-10T20:52:45.985Z,55.86
2019-06-10T20:55:42.442Z,55.87
2019-06-10T20:58:24.594Z,56.14
2019-06-10T21:01:13.988Z,56.05
2019-06-10T21:04:03.928Z,55.97
2019-06-10T21:06:53.973Z,56.04
2019-06-10T21:09:44.417Z,56.02
2019-06-10T21:12:33.689Z,56.19
2019-06-10T21:15:23.367Z,56.30
2019-06-10T21:18:13.189Z,56.26
2019-06-10T21:21:01.934Z,56.19
2019-06-10T21:23:51.788Z,56.44
2019-06-10T21:26:43.870Z,56.33
2019-06-10T21:29:32.295Z,56.33
2019-06-10T21:32:22.047Z,56.34
2019-06-10T21:35:12.077Z,56.43
2019-06-10T21:38:01.054Z,56.40
2019-06-10T21:40:49.816Z,56.61
2019-06-10T21:43:41.469Z,56.60
2019-06-10T21:46:28.823Z,56.57
2019-06-10T21:49:17.611Z,56.68
2019-06-10T21:52:06.843Z,56.73
2019-06-10T21:54:56.248Z,56.59
2019-06-10T21:57:46.827Z,56.74
2019-06-10T22:00:55.590Z,56.70
2019-06-10T22:03:35.987Z,56.87
2019-06-10T22:06:25.510Z,56.98
2019-06-10T22:09:14.380Z,56.90
2019-06-10T22:12:03.470Z,56.92
2019-06-10T22:14:52.500Z,56.96
2019-06-10T22:17:46.245Z,57.04
2019-06-10T22:20:35.662Z,56.96
2019-06-10T22:23:24.662Z,57.09
2019-06-10T22:26:13.857Z,57.03
2019-06-10T22:29:03.253Z,57.10
2019-06-10T22:31:55.057Z,57.16
2019-06-10T22:34:42.962Z,57.16
2019-06-10T22:37:32.985Z,57.32
2019-06-10T22:40:22.979Z,57.32
2019-06-10T22:43:13.042Z,57.39
2019-06-10T22:46:04.031Z,57.30
2019-06-10T22:48:53.391Z,57.42
2019-06-10T22:51:43.259Z,57.39
2019-06-10T22:54:32.439Z,57.45
2019-06-10T22:57:22.236Z,57.45
2019-06-10T23:00:13.096Z,57.36
2019-06-10T23:03:02.870Z,57.45
2019-06-10T23:05:54.341Z,57.42
2019-06-10T23:08:44.109Z,57.47
2019-06-10T23:11:33.860Z,57.45
2019-06-10T23:14:23.374Z,57.51
2019-06-10T23:17:14.190Z,57.50
2019-06-10T23:20:03.310Z,57.58
2019-06-10T23:22:55.508Z,57.64
2019-06-10T23:25:43.265Z,57.56
2019-06-10T23:28:32.870Z,57.62
2019-06-10T23:31:23.068Z,57.65
2019-06-10T23:34:19.946Z,57.70
2019-06-10T23:37:13.787Z,57.76
2019-06-10T23:40:04.665Z,57.62
2019-06-10T23:42:57.056Z,57.77
2019-06-10T23:45:51.297Z,57.74
2019-06-10T23:48:45.220Z,57.74
2019-06-10T23:51:34.504Z,57.76
2019-06-10T23:54:27.835Z,57.82
2019-06-10T23:57:22.317Z,57.73
